Airfield :
LOGIN :

Register | Disclaimer

   EN    FR    IT 

 










Legend :    VFR   Marginal VFR   IFR   Intensive IFR   Very Intensive IFR
Visi :
Ceiling :
>= 8 km
>= 3000ft
5 to 8 km
1000 to 3000 ft
1500m to 5 km
500 to 1000 ft
800 to 1500m
200 to 500 ft
< 800m
< 200 ft
Symbols :   Thunderstorms  Fog  Heavy snow  Heavy precipitations  Wind > 20 kt
SIGMETs :     Misc.  Thunderstorms  Icing  Turbulence  Mountain Waves  Volcanic Ashes






- Airport Elevation : 2625 ft
- IATA code : LEU


LESU - Aeròdrom dels Pirineus-Alt Urgell

CURRENT METAR :
  • 161300Z VRB01KT 9999 0600 BCFG FEW002 03/03 Q1010

EXPIRED METARs :
  • 161230Z VRB02KT 6000 0500 R03/0650U BCFG FEW002 02/02 Q1010
  • 161200Z 22003KT 190V270 0250 R03/0250D FG VV001 01/01 Q1011
  • 161130Z 35003KT 310V040 0400 R03/0500D BCFG VV001 01/01 Q1011
  • 161100Z VRB02KT 0100 R03/0375D FG VV001 01/01 Q1012

TAF AMD TAF LESU
Valid from the 16 at 12:00 until the 17 at 09:00 UTC


161228Z 1612/1709 VRB04KT 9999 FEW060 TX15/1613Z TN02/1612Z
TEMPO 1612/1614 0900 BCFG VV001



MET'MAP, your aeronautical weather chart ! - Copyright ORBIFLY December 2007 - Disclaimer

ORBIFLY MET'MAP TEAM :

Programming & Development : Alexandra Zaïnal
Concept & original design : Baudouin d'Aumeries
Assistance for programming : Marc-Olivier Méhu
Technical & hardware support : Manuel Goepfert

Contact : metmap@orbifly.com




SOURCES & CREDITS :

   NOAA